sensor_id;sensor_type;location;lat;lon;timestamp;temperature;humidity
10304;DHT22;5197;48.152;8.590;2024-02-04T00:00:39;5.30;22.20
10304;DHT22;5197;48.152;8.590;2024-02-04T00:03:05;5.30;23.10
10304;DHT22;5197;48.152;8.590;2024-02-04T00:05:32;5.40;21.30
10304;DHT22;5197;48.152;8.590;2024-02-04T00:07:59;5.40;20.60
10304;DHT22;5197;48.152;8.590;2024-02-04T00:10:26;5.40;21.20
10304;DHT22;5197;48.152;8.590;2024-02-04T00:12:53;5.30;21.50
10304;DHT22;5197;48.152;8.590;2024-02-04T00:15:20;5.30;21.90
10304;DHT22;5197;48.152;8.590;2024-02-04T00:17:47;5.20;21.90
10304;DHT22;5197;48.152;8.590;2024-02-04T00:20:14;5.20;21.50
10304;DHT22;5197;48.152;8.590;2024-02-04T00:22:41;5.30;21.10
10304;DHT22;5197;48.152;8.590;2024-02-04T00:25:08;5.30;20.40
10304;DHT22;5197;48.152;8.590;2024-02-04T00:27:39;5.40;19.70
10304;DHT22;5197;48.152;8.590;2024-02-04T00:30:06;5.40;18.60
10304;DHT22;5197;48.152;8.590;2024-02-04T00:32:33;5.50;18.70
10304;DHT22;5197;48.152;8.590;2024-02-04T00:35:01;5.40;18.60
10304;DHT22;5197;48.152;8.590;2024-02-04T00:37:28;5.40;18.60
10304;DHT22;5197;48.152;8.590;2024-02-04T00:39:54;5.30;18.50
10304;DHT22;5197;48.152;8.590;2024-02-04T00:42:21;5.30;18.60
10304;DHT22;5197;48.152;8.590;2024-02-04T00:44:48;5.30;18.50
10304;DHT22;5197;48.152;8.590;2024-02-04T00:47:15;5.40;18.60
10304;DHT22;5197;48.152;8.590;2024-02-04T00:49:42;5.40;18.70
10304;DHT22;5197;48.152;8.590;2024-02-04T00:52:09;5.40;18.60
10304;DHT22;5197;48.152;8.590;2024-02-04T00:54:36;5.40;18.60
10304;DHT22;5197;48.152;8.590;2024-02-04T00:57:03;5.40;18.60
10304;DHT22;5197;48.152;8.590;2024-02-04T00:59:29;5.40;18.60
10304;DHT22;5197;48.152;8.590;2024-02-04T01:01:56;5.30;18.50
10304;DHT22;5197;48.152;8.590;2024-02-04T01:04:25;5.30;18.50
10304;DHT22;5197;48.152;8.590;2024-02-04T01:06:52;5.30;18.50
10304;DHT22;5197;48.152;8.590;2024-02-04T01:09:28;5.20;18.50
10304;DHT22;5197;48.152;8.590;2024-02-04T01:11:55;5.30;18.60
10304;DHT22;5197;48.152;8.590;2024-02-04T01:14:22;5.30;18.50
10304;DHT22;5197;48.152;8.590;2024-02-04T01:16:49;4.80;18.20
10304;DHT22;5197;48.152;8.590;2024-02-04T01:19:16;5.30;18.50
10304;DHT22;5197;48.152;8.590;2024-02-04T01:21:43;5.30;18.50
10304;DHT22;5197;48.152;8.590;2024-02-04T01:24:13;5.30;18.60
10304;DHT22;5197;48.152;8.590;2024-02-04T01:26:40;5.40;18.20
10304;DHT22;5197;48.152;8.590;2024-02-04T01:29:07;5.40;18.00
10304;DHT22;5197;48.152;8.590;2024-02-04T01:31:34;5.30;18.00
10304;DHT22;5197;48.152;8.590;2024-02-04T01:34:01;5.40;18.20
10304;DHT22;5197;48.152;8.590;2024-02-04T01:36:28;5.40;17.90
10304;DHT22;5197;48.152;8.590;2024-02-04T01:38:54;5.40;17.60
10304;DHT22;5197;48.152;8.590;2024-02-04T01:41:21;5.40;17.70
10304;DHT22;5197;48.152;8.590;2024-02-04T01:43:48;5.40;17.60
10304;DHT22;5197;48.152;8.590;2024-02-04T01:46:15;5.40;17.60
10304;DHT22;5197;48.152;8.590;2024-02-04T01:48:42;5.40;17.70
10304;DHT22;5197;48.152;8.590;2024-02-04T01:51:09;5.40;16.40
10304;DHT22;5197;48.152;8.590;2024-02-04T01:53:38;5.40;17.30
10304;DHT22;5197;48.152;8.590;2024-02-04T01:56:06;5.40;17.20
10304;DHT22;5197;48.152;8.590;2024-02-04T01:58:34;5.50;17.20
10304;DHT22;5197;48.152;8.590;2024-02-04T02:01:01;5.50;17.20
10304;DHT22;5197;48.152;8.590;2024-02-04T02:03:31;5.40;17.00
10304;DHT22;5197;48.152;8.590;2024-02-04T02:05:59;5.40;17.10
10304;DHT22;5197;48.152;8.590;2024-02-04T02:08:26;5.40;17.00
10304;DHT22;5197;48.152;8.590;2024-02-04T02:11:02;5.40;17.10
10304;DHT22;5197;48.152;8.590;2024-02-04T02:13:31;5.40;17.10
10304;DHT22;5197;48.152;8.590;2024-02-04T02:16:07;5.50;17.20
10304;DHT22;5197;48.152;8.590;2024-02-04T02:18:52;5.50;17.10
10304;DHT22;5197;48.152;8.590;2024-02-04T02:26:28;5.40;17.10
10304;DHT22;5197;48.152;8.590;2024-02-04T02:28:55;5.40;17.10
10304;DHT22;5197;48.152;8.590;2024-02-04T02:31:22;5.40;17.00
10304;DHT22;5197;48.152;8.590;2024-02-04T02:34:05;5.40;17.00
10304;DHT22;5197;48.152;8.590;2024-02-04T02:37:00;5.40;17.00
10304;DHT22;5197;48.152;8.590;2024-02-04T02:39:34;5.40;16.80
10304;DHT22;5197;48.152;8.590;2024-02-04T02:42:04;5.40;17.20
10304;DHT22;5197;48.152;8.590;2024-02-04T02:44:32;5.30;17.20
10304;DHT22;5197;48.152;8.590;2024-02-04T02:47:02;5.30;17.10
10304;DHT22;5197;48.152;8.590;2024-02-04T02:49:30;5.30;17.30
10304;DHT22;5197;48.152;8.590;2024-02-04T02:51:57;5.20;17.40
10304;DHT22;5197;48.152;8.590;2024-02-04T02:54:24;5.20;17.70
10304;DHT22;5197;48.152;8.590;2024-02-04T02:56:51;5.20;17.80
10304;DHT22;5197;48.152;8.590;2024-02-04T02:59:18;5.10;17.70
10304;DHT22;5197;48.152;8.590;2024-02-04T03:01:45;5.20;18.00
10304;DHT22;5197;48.152;8.590;2024-02-04T03:04:12;5.10;17.70
10304;DHT22;5197;48.152;8.590;2024-02-04T03:06:39;5.30;17.60
10304;DHT22;5197;48.152;8.590;2024-02-04T03:09:06;5.20;17.30
10304;DHT22;5197;48.152;8.590;2024-02-04T03:11:33;5.10;17.10
10304;DHT22;5197;48.152;8.590;2024-02-04T03:14:00;5.20;17.00
10304;DHT22;5197;48.152;8.590;2024-02-04T03:16:26;5.20;16.80
10304;DHT22;5197;48.152;8.590;2024-02-04T03:18:53;5.10;17.10
10304;DHT22;5197;48.152;8.590;2024-02-04T03:21:20;5.10;16.30
10304;DHT22;5197;48.152;8.590;2024-02-04T03:23:47;5.10;16.40
10304;DHT22;5197;48.152;8.590;2024-02-04T03:26:17;5.00;16.40
10304;DHT22;5197;48.152;8.590;2024-02-04T03:28:47;5.00;16.20
10304;DHT22;5197;48.152;8.590;2024-02-04T03:31:21;5.00;16.30
10304;DHT22;5197;48.152;8.590;2024-02-04T03:33:48;4.90;16.20
10304;DHT22;5197;48.152;8.590;2024-02-04T03:36:23;4.90;16.10
10304;DHT22;5197;48.152;8.590;2024-02-04T03:38:53;4.90;15.90
10304;DHT22;5197;48.152;8.590;2024-02-04T03:41:20;4.90;15.90
10304;DHT22;5197;48.152;8.590;2024-02-04T03:43:48;4.80;15.80
10304;DHT22;5197;48.152;8.590;2024-02-04T03:46:15;4.80;15.80
10304;DHT22;5197;48.152;8.590;2024-02-04T03:48:43;4.70;15.70
10304;DHT22;5197;48.152;8.590;2024-02-04T03:51:19;4.70;15.90
10304;DHT22;5197;48.152;8.590;2024-02-04T03:53:47;4.70;16.00
10304;DHT22;5197;48.152;8.590;2024-02-04T03:56:14;4.60;15.90
10304;DHT22;5197;48.152;8.590;2024-02-04T03:58:41;4.50;14.60
10304;DHT22;5197;48.152;8.590;2024-02-04T04:01:12;4.30;15.20
10304;DHT22;5197;48.152;8.590;2024-02-04T04:03:42;4.10;16.50
10304;DHT22;5197;48.152;8.590;2024-02-04T04:06:10;4.10;17.30
10304;DHT22;5197;48.152;8.590;2024-02-04T04:08:40;4.10;17.80
10304;DHT22;5197;48.152;8.590;2024-02-04T04:11:09;4.10;17.80
10304;DHT22;5197;48.152;8.590;2024-02-04T04:13:37;4.10;17.80
10304;DHT22;5197;48.152;8.590;2024-02-04T04:16:06;4.10;17.70
10304;DHT22;5197;48.152;8.590;2024-02-04T04:18:33;4.00;17.70
10304;DHT22;5197;48.152;8.590;2024-02-04T04:21:00;4.00;17.70
10304;DHT22;5197;48.152;8.590;2024-02-04T04:23:27;4.00;17.70
10304;DHT22;5197;48.152;8.590;2024-02-04T04:25:54;4.00;17.70
10304;DHT22;5197;48.152;8.590;2024-02-04T04:28:21;4.00;17.70
10304;DHT22;5197;48.152;8.590;2024-02-04T04:30:48;4.00;17.70
10304;DHT22;5197;48.152;8.590;2024-02-04T04:33:14;3.90;17.60
10304;DHT22;5197;48.152;8.590;2024-02-04T04:35:42;3.90;17.70
10304;DHT22;5197;48.152;8.590;2024-02-04T04:38:09;3.80;17.60
10304;DHT22;5197;48.152;8.590;2024-02-04T04:40:39;3.80;17.60
10304;DHT22;5197;48.152;8.590;2024-02-04T04:43:07;3.70;17.50
10304;DHT22;5197;48.152;8.590;2024-02-04T04:45:34;3.60;17.50
10304;DHT22;5197;48.152;8.590;2024-02-04T04:48:01;3.60;17.50
10304;DHT22;5197;48.152;8.590;2024-02-04T04:50:27;3.60;17.50
10304;DHT22;5197;48.152;8.590;2024-02-04T04:52:54;3.50;17.40
10304;DHT22;5197;48.152;8.590;2024-02-04T04:55:21;3.40;17.40
10304;DHT22;5197;48.152;8.590;2024-02-04T04:57:48;3.40;17.40
10304;DHT22;5197;48.152;8.590;2024-02-04T05:00:15;3.30;17.30
10304;DHT22;5197;48.152;8.590;2024-02-04T05:02:43;3.20;17.30
10304;DHT22;5197;48.152;8.590;2024-02-04T05:05:11;3.20;17.20
10304;DHT22;5197;48.152;8.590;2024-02-04T05:07:39;3.10;17.10
10304;DHT22;5197;48.152;8.590;2024-02-04T05:10:06;3.10;17.10
10304;DHT22;5197;48.152;8.590;2024-02-04T05:12:35;3.00;17.10
10304;DHT22;5197;48.152;8.590;2024-02-04T05:15:03;3.00;17.10
10304;DHT22;5197;48.152;8.590;2024-02-04T05:17:30;3.00;17.10
10304;DHT22;5197;48.152;8.590;2024-02-04T05:19:58;2.90;17.10
10304;DHT22;5197;48.152;8.590;2024-02-04T05:22:26;2.90;17.10
10304;DHT22;5197;48.152;8.590;2024-02-04T05:24:55;2.90;17.10
10304;DHT22;5197;48.152;8.590;2024-02-04T05:27:22;2.80;17.00
10304;DHT22;5197;48.152;8.590;2024-02-04T05:29:49;2.80;17.10
10304;DHT22;5197;48.152;8.590;2024-02-04T05:32:15;2.70;17.00
10304;DHT22;5197;48.152;8.590;2024-02-04T05:34:42;2.70;17.00
10304;DHT22;5197;48.152;8.590;2024-02-04T05:37:09;2.70;17.00
10304;DHT22;5197;48.152;8.590;2024-02-04T05:39:37;2.70;17.30
10304;DHT22;5197;48.152;8.590;2024-02-04T05:42:04;2.70;17.00
10304;DHT22;5197;48.152;8.590;2024-02-04T05:44:31;2.60;17.00
10304;DHT22;5197;48.152;8.590;2024-02-04T05:46:58;2.70;17.00
10304;DHT22;5197;48.152;8.590;2024-02-04T05:49:28;2.60;16.90
10304;DHT22;5197;48.152;8.590;2024-02-04T05:51:55;2.60;16.90
10304;DHT22;5197;48.152;8.590;2024-02-04T05:54:22;2.60;16.90
10304;DHT22;5197;48.152;8.590;2024-02-04T05:56:50;2.60;16.90
10304;DHT22;5197;48.152;8.590;2024-02-04T05:59:17;2.60;17.10
10304;DHT22;5197;48.152;8.590;2024-02-04T06:01:43;2.50;17.50
10304;DHT22;5197;48.152;8.590;2024-02-04T06:04:11;2.60;17.60
10304;DHT22;5197;48.152;8.590;2024-02-04T06:06:38;2.60;17.90
10304;DHT22;5197;48.152;8.590;2024-02-04T06:09:05;2.60;17.90
10304;DHT22;5197;48.152;8.590;2024-02-04T06:11:34;2.60;17.90
10304;DHT22;5197;48.152;8.590;2024-02-04T06:14:01;2.50;18.00
10304;DHT22;5197;48.152;8.590;2024-02-04T06:16:28;2.50;18.10
10304;DHT22;5197;48.152;8.590;2024-02-04T06:18:56;2.60;18.40
10304;DHT22;5197;48.152;8.590;2024-02-04T06:21:24;2.60;18.20
10304;DHT22;5197;48.152;8.590;2024-02-04T06:23:52;2.60;18.30
10304;DHT22;5197;48.152;8.590;2024-02-04T06:26:19;2.60;18.40
10304;DHT22;5197;48.152;8.590;2024-02-04T06:28:47;2.60;18.40
10304;DHT22;5197;48.152;8.590;2024-02-04T06:31:15;2.60;18.50
10304;DHT22;5197;48.152;8.590;2024-02-04T06:33:42;2.60;18.60
10304;DHT22;5197;48.152;8.590;2024-02-04T06:36:10;2.60;18.60
10304;DHT22;5197;48.152;8.590;2024-02-04T06:38:37;2.50;18.80
10304;DHT22;5197;48.152;8.590;2024-02-04T06:41:05;2.50;18.90
10304;DHT22;5197;48.152;8.590;2024-02-04T06:43:33;2.50;19.10
10304;DHT22;5197;48.152;8.590;2024-02-04T06:46:03;2.50;19.20
10304;DHT22;5197;48.152;8.590;2024-02-04T06:48:31;2.50;19.20
10304;DHT22;5197;48.152;8.590;2024-02-04T06:50:59;2.50;19.30
10304;DHT22;5197;48.152;8.590;2024-02-04T06:53:26;2.50;19.50
10304;DHT22;5197;48.152;8.590;2024-02-04T06:55:53;2.50;19.70
10304;DHT22;5197;48.152;8.590;2024-02-04T06:58:20;2.50;19.90
10304;DHT22;5197;48.152;8.590;2024-02-04T07:00:47;2.50;19.90
10304;DHT22;5197;48.152;8.590;2024-02-04T07:03:14;2.50;19.90
10304;DHT22;5197;48.152;8.590;2024-02-04T07:05:41;2.50;20.10
10304;DHT22;5197;48.152;8.590;2024-02-04T07:08:09;2.50;20.30
10304;DHT22;5197;48.152;8.590;2024-02-04T07:10:36;2.40;20.50
10304;DHT22;5197;48.152;8.590;2024-02-04T07:13:03;2.50;20.50
10304;DHT22;5197;48.152;8.590;2024-02-04T07:15:30;2.50;20.60
10304;DHT22;5197;48.152;8.590;2024-02-04T07:17:57;2.50;20.40
10304;DHT22;5197;48.152;8.590;2024-02-04T07:20:24;2.50;20.60
10304;DHT22;5197;48.152;8.590;2024-02-04T07:22:51;2.50;21.00
10304;DHT22;5197;48.152;8.590;2024-02-04T07:25:18;2.50;21.20
10304;DHT22;5197;48.152;8.590;2024-02-04T07:27:44;2.50;21.20
10304;DHT22;5197;48.152;8.590;2024-02-04T07:30:12;2.50;21.50
10304;DHT22;5197;48.152;8.590;2024-02-04T07:32:38;2.50;21.50
10304;DHT22;5197;48.152;8.590;2024-02-04T07:35:06;2.50;21.60
10304;DHT22;5197;48.152;8.590;2024-02-04T07:37:33;2.50;22.00
10304;DHT22;5197;48.152;8.590;2024-02-04T07:40:00;2.50;22.00
10304;DHT22;5197;48.152;8.590;2024-02-04T07:42:28;2.60;22.20
10304;DHT22;5197;48.152;8.590;2024-02-04T07:45:08;2.60;22.30
10304;DHT22;5197;48.152;8.590;2024-02-04T07:47:37;2.70;22.70
10304;DHT22;5197;48.152;8.590;2024-02-04T07:50:06;2.70;22.70
10304;DHT22;5197;48.152;8.590;2024-02-04T07:52:34;2.70;23.10
10304;DHT22;5197;48.152;8.590;2024-02-04T07:55:01;2.80;22.90
10304;DHT22;5197;48.152;8.590;2024-02-04T07:57:28;2.80;23.00
10304;DHT22;5197;48.152;8.590;2024-02-04T07:59:55;2.90;22.90
10304;DHT22;5197;48.152;8.590;2024-02-04T08:02:26;2.90;22.80
10304;DHT22;5197;48.152;8.590;2024-02-04T08:04:53;3.00;22.80
10304;DHT22;5197;48.152;8.590;2024-02-04T08:07:20;3.00;22.80
10304;DHT22;5197;48.152;8.590;2024-02-04T08:09:48;3.00;23.20
10304;DHT22;5197;48.152;8.590;2024-02-04T08:12:19;3.00;23.40
10304;DHT22;5197;48.152;8.590;2024-02-04T08:14:48;3.00;23.40
10304;DHT22;5197;48.152;8.590;2024-02-04T08:17:16;3.00;23.40
10304;DHT22;5197;48.152;8.590;2024-02-04T08:19:47;3.10;23.30
10304;DHT22;5197;48.152;8.590;2024-02-04T08:22:15;3.10;23.50
10304;DHT22;5197;48.152;8.590;2024-02-04T08:24:44;3.10;23.50
10304;DHT22;5197;48.152;8.590;2024-02-04T08:27:13;3.10;23.90
10304;DHT22;5197;48.152;8.590;2024-02-04T08:29:42;3.20;24.00
10304;DHT22;5197;48.152;8.590;2024-02-04T08:32:11;3.20;24.00
10304;DHT22;5197;48.152;8.590;2024-02-04T08:34:39;3.30;24.10
10304;DHT22;5197;48.152;8.590;2024-02-04T08:37:12;3.30;24.10
10304;DHT22;5197;48.152;8.590;2024-02-04T08:39:39;3.40;24.00
10304;DHT22;5197;48.152;8.590;2024-02-04T08:42:06;3.40;23.70
10304;DHT22;5197;48.152;8.590;2024-02-04T08:44:33;3.50;23.70
10304;DHT22;5197;48.152;8.590;2024-02-04T08:47:05;3.60;23.70
10304;DHT22;5197;48.152;8.590;2024-02-04T08:49:36;3.60;23.60
10304;DHT22;5197;48.152;8.590;2024-02-04T08:52:03;3.60;23.60
10304;DHT22;5197;48.152;8.590;2024-02-04T08:54:30;3.70;23.90
10304;DHT22;5197;48.152;8.590;2024-02-04T08:56:57;3.70;23.90
10304;DHT22;5197;48.152;8.590;2024-02-04T08:59:24;3.70;24.10
10304;DHT22;5197;48.152;8.590;2024-02-04T09:01:51;3.70;24.20
10304;DHT22;5197;48.152;8.590;2024-02-04T09:04:18;3.70;24.60
10304;DHT22;5197;48.152;8.590;2024-02-04T09:06:45;3.70;24.60
10304;DHT22;5197;48.152;8.590;2024-02-04T09:09:12;3.80;24.50
10304;DHT22;5197;48.152;8.590;2024-02-04T09:11:39;3.80;24.50
10304;DHT22;5197;48.152;8.590;2024-02-04T09:14:06;3.80;24.20
10304;DHT22;5197;48.152;8.590;2024-02-04T09:16:33;3.90;24.30
10304;DHT22;5197;48.152;8.590;2024-02-04T09:19:00;4.00;24.50
10304;DHT22;5197;48.152;8.590;2024-02-04T09:21:27;4.00;24.30
10304;DHT22;5197;48.152;8.590;2024-02-04T09:24:00;4.10;24.30
10304;DHT22;5197;48.152;8.590;2024-02-04T09:26:28;4.10;24.40
10304;DHT22;5197;48.152;8.590;2024-02-04T09:28:55;4.20;24.60
10304;DHT22;5197;48.152;8.590;2024-02-04T09:31:24;4.30;24.70
10304;DHT22;5197;48.152;8.590;2024-02-04T09:33:52;4.30;24.60
10304;DHT22;5197;48.152;8.590;2024-02-04T09:36:21;4.40;24.60
10304;DHT22;5197;48.152;8.590;2024-02-04T09:38:50;4.40;24.50
10304;DHT22;5197;48.152;8.590;2024-02-04T09:41:17;4.50;24.60
10304;DHT22;5197;48.152;8.590;2024-02-04T09:43:45;4.50;24.50
10304;DHT22;5197;48.152;8.590;2024-02-04T09:46:12;4.50;24.70
10304;DHT22;5197;48.152;8.590;2024-02-04T09:48:39;4.60;24.90
10304;DHT22;5197;48.152;8.590;2024-02-04T09:51:07;4.90;24.90
10304;DHT22;5197;48.152;8.590;2024-02-04T09:53:35;4.80;24.80
10304;DHT22;5197;48.152;8.590;2024-02-04T09:56:03;4.90;24.70
10304;DHT22;5197;48.152;8.590;2024-02-04T09:58:33;4.90;24.80
10304;DHT22;5197;48.152;8.590;2024-02-04T10:01:01;5.00;24.60
10304;DHT22;5197;48.152;8.590;2024-02-04T10:03:28;5.10;24.50
10304;DHT22;5197;48.152;8.590;2024-02-04T10:05:56;5.10;24.30
10304;DHT22;5197;48.152;8.590;2024-02-04T10:08:23;5.10;24.50
10304;DHT22;5197;48.152;8.590;2024-02-04T10:10:50;5.20;24.80
10304;DHT22;5197;48.152;8.590;2024-02-04T10:13:17;5.30;24.80
10304;DHT22;5197;48.152;8.590;2024-02-04T10:15:44;5.40;24.60
10304;DHT22;5197;48.152;8.590;2024-02-04T10:18:11;5.50;24.30
10304;DHT22;5197;48.152;8.590;2024-02-04T10:20:38;5.50;24.30
10304;DHT22;5197;48.152;8.590;2024-02-04T10:23:05;5.60;24.30
10304;DHT22;5197;48.152;8.590;2024-02-04T10:25:32;5.70;24.00
10304;DHT22;5197;48.152;8.590;2024-02-04T10:27:59;5.70;23.50
10304;DHT22;5197;48.152;8.590;2024-02-04T10:30:26;5.80;23.30
10304;DHT22;5197;48.152;8.590;2024-02-04T10:32:53;5.80;23.20
10304;DHT22;5197;48.152;8.590;2024-02-04T10:35:21;5.90;23.00
10304;DHT22;5197;48.152;8.590;2024-02-04T10:37:50;5.90;22.70
10304;DHT22;5197;48.152;8.590;2024-02-04T10:40:18;6.00;22.60
10304;DHT22;5197;48.152;8.590;2024-02-04T10:42:45;6.00;22.50
10304;DHT22;5197;48.152;8.590;2024-02-04T10:45:16;6.10;22.50
10304;DHT22;5197;48.152;8.590;2024-02-04T10:47:48;6.20;22.30
10304;DHT22;5197;48.152;8.590;2024-02-04T10:50:17;6.30;22.30
10304;DHT22;5197;48.152;8.590;2024-02-04T10:52:46;6.40;22.20
10304;DHT22;5197;48.152;8.590;2024-02-04T10:55:15;6.50;22.10
10304;DHT22;5197;48.152;8.590;2024-02-04T10:57:44;6.60;21.90
10304;DHT22;5197;48.152;8.590;2024-02-04T11:00:11;6.70;21.60
10304;DHT22;5197;48.152;8.590;2024-02-04T11:02:40;6.80;21.20
10304;DHT22;5197;48.152;8.590;2024-02-04T11:05:09;6.90;21.00
10304;DHT22;5197;48.152;8.590;2024-02-04T11:07:37;7.00;20.20
10304;DHT22;5197;48.152;8.590;2024-02-04T11:10:04;7.20;19.70
10304;DHT22;5197;48.152;8.590;2024-02-04T11:12:33;7.20;19.80
10304;DHT22;5197;48.152;8.590;2024-02-04T11:15:05;7.20;19.70
10304;DHT22;5197;48.152;8.590;2024-02-04T11:23:59;7.50;19.90
10304;DHT22;5197;48.152;8.590;2024-02-04T11:26:26;7.60;20.00
10304;DHT22;5197;48.152;8.590;2024-02-04T11:28:53;7.60;20.00
10304;DHT22;5197;48.152;8.590;2024-02-04T11:31:20;7.70;19.10
10304;DHT22;5197;48.152;8.590;2024-02-04T11:33:50;7.70;18.90
10304;DHT22;5197;48.152;8.590;2024-02-04T11:36:18;7.80;18.50
10304;DHT22;5197;48.152;8.590;2024-02-04T11:38:48;7.90;18.20
10304;DHT22;5197;48.152;8.590;2024-02-04T11:41:23;7.90;17.80
10304;DHT22;5197;48.152;8.590;2024-02-04T11:43:56;8.10;17.50
10304;DHT22;5197;48.152;8.590;2024-02-04T11:46:30;8.20;17.30
10304;DHT22;5197;48.152;8.590;2024-02-04T11:49:00;8.30;16.90
10304;DHT22;5197;48.152;8.590;2024-02-04T11:51:28;8.40;16.30
10304;DHT22;5197;48.152;8.590;2024-02-04T11:53:55;8.40;15.90
10304;DHT22;5197;48.152;8.590;2024-02-04T11:56:24;8.50;15.40
10304;DHT22;5197;48.152;8.590;2024-02-04T11:58:51;8.60;15.20
10304;DHT22;5197;48.152;8.590;2024-02-04T12:01:22;8.60;15.00
10304;DHT22;5197;48.152;8.590;2024-02-04T12:03:50;8.80;14.30
10304;DHT22;5197;48.152;8.590;2024-02-04T12:06:18;8.80;13.80
10304;DHT22;5197;48.152;8.590;2024-02-04T12:08:46;8.90;13.50
10304;DHT22;5197;48.152;8.590;2024-02-04T12:11:13;9.00;13.20
10304;DHT22;5197;48.152;8.590;2024-02-04T12:13:41;9.10;12.80
10304;DHT22;5197;48.152;8.590;2024-02-04T12:16:09;9.10;12.00
10304;DHT22;5197;48.152;8.590;2024-02-04T12:18:47;9.10;11.70
10304;DHT22;5197;48.152;8.590;2024-02-04T12:21:15;9.20;11.20
10304;DHT22;5197;48.152;8.590;2024-02-04T12:23:41;9.00;11.40
10304;DHT22;5197;48.152;8.590;2024-02-04T12:26:08;9.20;11.30
10304;DHT22;5197;48.152;8.590;2024-02-04T12:28:35;9.30;11.40
10304;DHT22;5197;48.152;8.590;2024-02-04T12:31:02;9.30;11.10
10304;DHT22;5197;48.152;8.590;2024-02-04T12:33:30;9.40;11.00
10304;DHT22;5197;48.152;8.590;2024-02-04T12:35:57;9.50;10.70
10304;DHT22;5197;48.152;8.590;2024-02-04T12:38:25;9.50;10.40
10304;DHT22;5197;48.152;8.590;2024-02-04T12:41:01;9.60;10.50
10304;DHT22;5197;48.152;8.590;2024-02-04T12:43:29;9.60;9.90
10304;DHT22;5197;48.152;8.590;2024-02-04T12:45:56;9.70;9.90
10304;DHT22;5197;48.152;8.590;2024-02-04T12:48:26;9.70;9.80
10304;DHT22;5197;48.152;8.590;2024-02-04T12:50:54;9.80;9.70
10304;DHT22;5197;48.152;8.590;2024-02-04T12:53:21;9.90;9.10
10304;DHT22;5197;48.152;8.590;2024-02-04T12:55:58;9.90;8.80
10304;DHT22;5197;48.152;8.590;2024-02-04T12:58:25;10.00;7.20
10304;DHT22;5197;48.152;8.590;2024-02-04T13:01:02;10.00;7.30
10304;DHT22;5197;48.152;8.590;2024-02-04T13:03:31;10.10;7.30
10304;DHT22;5197;48.152;8.590;2024-02-04T13:05:58;10.10;7.50
10304;DHT22;5197;48.152;8.590;2024-02-04T13:08:25;10.10;7.40
10304;DHT22;5197;48.152;8.590;2024-02-04T13:10:57;10.20;8.10
10304;DHT22;5197;48.152;8.590;2024-02-04T13:13:23;10.20;7.10
10304;DHT22;5197;48.152;8.590;2024-02-04T13:15:55;10.20;6.80
10304;DHT22;5197;48.152;8.590;2024-02-04T13:18:23;10.10;6.70
10304;DHT22;5197;48.152;8.590;2024-02-04T13:20:50;10.30;6.70
10304;DHT22;5197;48.152;8.590;2024-02-04T13:23:17;10.30;6.50
10304;DHT22;5197;48.152;8.590;2024-02-04T13:25:43;10.30;6.30
10304;DHT22;5197;48.152;8.590;2024-02-04T13:28:12;10.30;6.20
10304;DHT22;5197;48.152;8.590;2024-02-04T13:30:39;10.20;6.20
10304;DHT22;5197;48.152;8.590;2024-02-04T13:33:07;10.20;6.00
10304;DHT22;5197;48.152;8.590;2024-02-04T13:35:35;10.20;5.80
10304;DHT22;5197;48.152;8.590;2024-02-04T13:38:02;10.20;6.00
10304;DHT22;5197;48.152;8.590;2024-02-04T13:40:30;10.30;6.20
10304;DHT22;5197;48.152;8.590;2024-02-04T13:42:57;10.20;5.80
10304;DHT22;5197;48.152;8.590;2024-02-04T13:45:24;10.30;6.00
10304;DHT22;5197;48.152;8.590;2024-02-04T13:47:51;10.30;6.00
10304;DHT22;5197;48.152;8.590;2024-02-04T13:50:18;10.30;5.80
10304;DHT22;5197;48.152;8.590;2024-02-04T13:52:45;10.30;5.50
10304;DHT22;5197;48.152;8.590;2024-02-04T13:55:12;10.40;5.50
10304;DHT22;5197;48.152;8.590;2024-02-04T13:57:39;10.40;5.50
10304;DHT22;5197;48.152;8.590;2024-02-04T14:00:07;10.70;5.70
10304;DHT22;5197;48.152;8.590;2024-02-04T14:02:35;10.40;5.10
10304;DHT22;5197;48.152;8.590;2024-02-04T14:05:03;10.30;5.00
10304;DHT22;5197;48.152;8.590;2024-02-04T14:07:30;10.30;4.90
10304;DHT22;5197;48.152;8.590;2024-02-04T14:09:57;10.30;4.90
10304;DHT22;5197;48.152;8.590;2024-02-04T14:12:24;10.30;4.90
10304;DHT22;5197;48.152;8.590;2024-02-04T14:14:51;11.60;5.80
10304;DHT22;5197;48.152;8.590;2024-02-04T14:17:18;10.20;4.90
10304;DHT22;5197;48.152;8.590;2024-02-04T14:19:45;10.20;4.90
10304;DHT22;5197;48.152;8.590;2024-02-04T14:22:16;10.20;5.50
10304;DHT22;5197;48.152;8.590;2024-02-04T14:24:47;10.20;4.70
10304;DHT22;5197;48.152;8.590;2024-02-04T14:27:14;10.20;4.70
10304;DHT22;5197;48.152;8.590;2024-02-04T14:29:41;10.20;4.70
10304;DHT22;5197;48.152;8.590;2024-02-04T14:32:08;10.10;4.60
10304;DHT22;5197;48.152;8.590;2024-02-04T14:34:35;10.10;4.50
10304;DHT22;5197;48.152;8.590;2024-02-04T14:37:03;10.10;4.50
10304;DHT22;5197;48.152;8.590;2024-02-04T14:39:30;10.10;4.60
10304;DHT22;5197;48.152;8.590;2024-02-04T14:42:00;10.10;4.40
10304;DHT22;5197;48.152;8.590;2024-02-04T14:44:28;10.00;4.30
10304;DHT22;5197;48.152;8.590;2024-02-04T14:46:54;10.10;4.50
10304;DHT22;5197;48.152;8.590;2024-02-04T14:49:21;10.10;4.40
10304;DHT22;5197;48.152;8.590;2024-02-04T14:51:48;10.00;4.10
10304;DHT22;5197;48.152;8.590;2024-02-04T14:54:15;10.10;4.30
10304;DHT22;5197;48.152;8.590;2024-02-04T14:56:42;10.00;4.10
10304;DHT22;5197;48.152;8.590;2024-02-04T14:59:10;10.10;4.10
10304;DHT22;5197;48.152;8.590;2024-02-04T15:01:48;10.10;4.00
10304;DHT22;5197;48.152;8.590;2024-02-04T15:04:17;10.10;4.00
10304;DHT22;5197;48.152;8.590;2024-02-04T15:06:45;10.10;3.90
10304;DHT22;5197;48.152;8.590;2024-02-04T15:09:12;10.60;4.30
10304;DHT22;5197;48.152;8.590;2024-02-04T15:11:42;10.60;4.40
10304;DHT22;5197;48.152;8.590;2024-02-04T15:14:10;10.00;4.10
10304;DHT22;5197;48.152;8.590;2024-02-04T15:16:37;10.00;4.10
10304;DHT22;5197;48.152;8.590;2024-02-04T15:19:07;10.00;4.20
10304;DHT22;5197;48.152;8.590;2024-02-04T15:21:35;10.00;4.30
10304;DHT22;5197;48.152;8.590;2024-02-04T15:24:03;9.80;5.00
10304;DHT22;5197;48.152;8.590;2024-02-04T15:26:34;9.80;5.50
10304;DHT22;5197;48.152;8.590;2024-02-04T15:29:04;9.70;5.90
10304;DHT22;5197;48.152;8.590;2024-02-04T15:31:32;9.60;7.00
10304;DHT22;5197;48.152;8.590;2024-02-04T15:34:01;9.50;5.40
10304;DHT22;5197;48.152;8.590;2024-02-04T15:36:31;9.30;5.20
10304;DHT22;5197;48.152;8.590;2024-02-04T15:38:59;9.20;5.50
10304;DHT22;5197;48.152;8.590;2024-02-04T15:41:26;9.10;5.90
10304;DHT22;5197;48.152;8.590;2024-02-04T15:43:54;9.00;5.90
10304;DHT22;5197;48.152;8.590;2024-02-04T15:46:23;8.90;6.00
10304;DHT22;5197;48.152;8.590;2024-02-04T15:48:52;8.90;6.00
10304;DHT22;5197;48.152;8.590;2024-02-04T15:51:21;8.80;6.30
10304;DHT22;5197;48.152;8.590;2024-02-04T15:53:48;8.80;6.50
10304;DHT22;5197;48.152;8.590;2024-02-04T15:56:18;8.80;6.30
10304;DHT22;5197;48.152;8.590;2024-02-04T15:58:52;8.70;6.30
10304;DHT22;5197;48.152;8.590;2024-02-04T16:01:23;8.70;6.60
10304;DHT22;5197;48.152;8.590;2024-02-04T16:03:53;8.60;6.70
10304;DHT22;5197;48.152;8.590;2024-02-04T16:06:21;8.60;6.70
10304;DHT22;5197;48.152;8.590;2024-02-04T16:08:49;8.70;6.70
10304;DHT22;5197;48.152;8.590;2024-02-04T16:11:19;8.70;6.60
10304;DHT22;5197;48.152;8.590;2024-02-04T16:13:51;8.60;6.40
10304;DHT22;5197;48.152;8.590;2024-02-04T16:16:22;9.40;6.90
10304;DHT22;5197;48.152;8.590;2024-02-04T16:18:52;8.60;6.40